createdAt,value
2018-08-11T00:01:11.466Z,3.90
2018-08-11T00:03:39.482Z,4.53
2018-08-11T00:06:07.556Z,3.40
2018-08-11T00:08:35.483Z,7.80
2018-08-11T00:11:03.446Z,3.23
2018-08-11T00:13:31.382Z,4.10
2018-08-11T00:15:59.384Z,3.60
2018-08-11T00:18:27.447Z,4.77
2018-08-11T00:20:55.412Z,6.90
2018-08-11T00:23:23.431Z,4.27
2018-08-11T00:25:51.417Z,5.10
2018-08-11T00:28:19.396Z,5.67
2018-08-11T00:30:47.376Z,4.03
2018-08-11T00:33:15.249Z,6.23
2018-08-11T00:35:43.180Z,5.17
2018-08-11T00:38:11.126Z,4.77
2018-08-11T00:40:39.062Z,12.00
2018-08-11T00:43:07.087Z,4.00
2018-08-11T00:45:35.170Z,5.10
2018-08-11T00:48:03.097Z,4.53
2018-08-11T00:50:35.490Z,7.83
2018-08-11T00:53:04.043Z,6.07
2018-08-11T00:55:32.112Z,7.43
2018-08-11T00:58:00.015Z,6.10
2018-08-11T01:00:29.085Z,4.87
2018-08-11T01:02:57.488Z,4.30
2018-08-11T01:05:25.438Z,6.00
2018-08-11T01:07:53.409Z,4.87
2018-08-11T01:10:21.594Z,7.13
2018-08-11T01:12:50.436Z,7.97
2018-08-11T01:15:20.770Z,7.20
2018-08-11T01:17:49.365Z,6.47
2018-08-11T01:20:17.395Z,5.10
2018-08-11T01:22:46.014Z,6.33
2018-08-11T01:25:14.382Z,5.27
2018-08-11T01:27:42.280Z,5.57
2018-08-11T01:30:13.967Z,4.93
2018-08-11T01:32:41.881Z,5.13
2018-08-11T01:35:10.662Z,4.67
2018-08-11T01:37:39.534Z,6.47
2018-08-11T01:40:08.977Z,7.47
2018-08-11T01:42:36.977Z,5.60
2018-08-11T01:45:05.348Z,4.70
2018-08-11T01:47:33.287Z,8.93
2018-08-11T01:50:01.254Z,8.40
2018-08-11T01:52:29.260Z,4.70
2018-08-11T01:54:57.207Z,6.10
2018-08-11T01:57:25.370Z,5.13
2018-08-11T01:59:53.372Z,4.90
2018-08-11T02:02:22.347Z,8.60
2018-08-11T02:04:50.301Z,7.30
2018-08-11T02:07:18.209Z,6.47
2018-08-11T02:09:46.127Z,6.23
2018-08-11T02:12:14.049Z,5.33
2018-08-11T02:14:41.994Z,5.23
2018-08-11T02:17:09.991Z,6.20
2018-08-11T02:19:38.012Z,6.40
2018-08-11T02:22:06.197Z,7.00
2018-08-11T02:24:34.480Z,5.30
2018-08-11T02:27:02.470Z,6.60
2018-08-11T02:29:30.399Z,6.20
2018-08-11T02:31:58.383Z,5.27
2018-08-11T02:34:26.382Z,5.80
2018-08-11T02:36:54.252Z,7.40
2018-08-11T02:39:22.196Z,7.30
2018-08-11T02:41:50.162Z,6.43
2018-08-11T02:44:18.169Z,7.27
2018-08-11T02:46:46.156Z,6.97
2018-08-11T02:49:14.072Z,5.73
2018-08-11T02:51:41.923Z,6.93
2018-08-11T02:54:09.813Z,7.00
2018-08-11T02:56:37.788Z,6.60
2018-08-11T02:59:05.885Z,5.47
2018-08-11T03:01:33.901Z,5.70
2018-08-11T03:04:01.964Z,6.00
2018-08-11T03:06:30.240Z,6.30
2018-08-11T03:08:58.244Z,11.07
2018-08-11T03:11:26.243Z,8.80
2018-08-11T03:13:54.140Z,5.50
2018-08-11T03:16:22.120Z,6.77
2018-08-11T03:18:49.974Z,6.63
2018-08-11T03:21:17.952Z,6.50
2018-08-11T03:23:45.905Z,7.10
2018-08-11T03:26:13.858Z,10.10
2018-08-11T03:28:41.879Z,6.13
2018-08-11T03:31:09.947Z,7.97
2018-08-11T03:33:38.031Z,8.37
2018-08-11T03:36:05.986Z,8.53
2018-08-11T03:38:33.953Z,6.87
2018-08-11T03:41:02.256Z,12.30
2018-08-11T03:43:30.227Z,6.60
2018-08-11T03:45:58.222Z,6.70
2018-08-11T03:48:26.171Z,9.87
2018-08-11T03:50:54.220Z,7.50
2018-08-11T03:53:22.125Z,7.83
2018-08-11T03:55:50.145Z,10.27
2018-08-11T03:58:18.182Z,8.33
2018-08-11T04:00:46.135Z,7.23
2018-08-11T04:03:14.025Z,6.53
2018-08-11T04:05:41.937Z,6.70
2018-08-11T04:08:09.835Z,7.57
2018-08-11T04:10:37.833Z,7.33
2018-08-11T04:13:05.758Z,6.10
2018-08-11T04:15:33.673Z,6.50
2018-08-11T04:18:01.619Z,7.00
2018-08-11T04:20:29.521Z,6.30
2018-08-11T04:22:57.695Z,9.23
2018-08-11T04:25:25.594Z,7.17
2018-08-11T04:27:53.595Z,7.70
2018-08-11T04:30:21.559Z,5.93
2018-08-11T04:32:49.514Z,7.80
2018-08-11T04:35:17.518Z,8.80
2018-08-11T04:37:45.468Z,6.57
2018-08-11T04:40:13.387Z,7.23
2018-08-11T04:42:41.407Z,6.80
2018-08-11T04:45:09.329Z,7.77
2018-08-11T04:47:37.457Z,7.10
2018-08-11T04:50:05.541Z,5.93
2018-08-11T04:52:33.682Z,6.20
2018-08-11T04:55:01.628Z,8.33
2018-08-11T04:57:29.571Z,8.97
2018-08-11T04:59:57.440Z,7.53
2018-08-11T05:02:25.325Z,7.47
2018-08-11T05:04:53.355Z,8.10
2018-08-11T05:07:21.238Z,7.90
2018-08-11T05:09:49.410Z,5.83
2018-08-11T05:12:17.326Z,6.87
2018-08-11T05:14:45.234Z,5.27
2018-08-11T05:17:13.064Z,9.03
2018-08-11T05:19:41.076Z,4.90
2018-08-11T05:22:09.017Z,6.63
2018-08-11T05:24:36.917Z,5.60
2018-08-11T05:27:04.830Z,7.10
2018-08-11T05:29:32.812Z,8.13
2018-08-11T05:32:01.674Z,7.23
2018-08-11T05:34:29.667Z,5.43
2018-08-11T05:36:57.727Z,7.27
2018-08-11T05:39:25.717Z,5.03
2018-08-11T05:41:53.676Z,5.20
2018-08-11T05:44:21.670Z,4.93
2018-08-11T05:46:49.529Z,4.90
2018-08-11T05:49:17.480Z,5.60
2018-08-11T05:51:45.413Z,5.00
2018-08-11T05:54:13.385Z,8.43
2018-08-11T05:56:41.481Z,4.50
2018-08-11T05:59:09.413Z,4.50
2018-08-11T06:01:37.313Z,6.47
2018-08-11T06:04:05.489Z,5.53
2018-08-11T06:06:33.388Z,5.40
2018-08-11T06:09:01.453Z,4.30
2018-08-11T06:11:29.421Z,4.33
2018-08-11T06:13:57.365Z,5.53
2018-08-11T06:16:25.248Z,7.87
2018-08-11T06:18:53.193Z,4.10
2018-08-11T06:21:21.230Z,4.27
2018-08-11T06:23:49.141Z,4.95
2018-08-11T06:26:18.096Z,5.43
2018-08-11T06:28:45.965Z,5.57
2018-08-11T06:31:14.120Z,5.63
2018-08-11T06:33:42.159Z,4.87
2018-08-11T06:36:10.114Z,6.83
2018-08-11T06:38:38.094Z,6.40
2018-08-11T06:41:06.056Z,4.13
2018-08-11T06:43:34.019Z,4.57
2018-08-11T06:46:02.198Z,4.07
2018-08-11T06:48:30.187Z,4.73
2018-08-11T06:50:58.076Z,6.60
2018-08-11T06:53:26.121Z,4.13
2018-08-11T06:55:54.149Z,4.30
2018-08-11T06:58:22.178Z,5.83
2018-08-11T07:00:50.097Z,6.03
2018-08-11T07:03:18.282Z,6.37
2018-08-11T07:05:46.318Z,5.67
2018-08-11T07:08:14.458Z,4.60
2018-08-11T07:10:42.542Z,5.80
2018-08-11T07:13:10.438Z,4.00
2018-08-11T07:15:38.499Z,5.40
2018-08-11T07:18:06.635Z,5.23
2018-08-11T07:20:34.680Z,4.47
2018-08-11T07:23:02.690Z,6.70
2018-08-11T07:25:30.727Z,4.70
2018-08-11T07:27:58.630Z,4.73
2018-08-11T07:30:26.643Z,4.40
2018-08-11T07:32:54.597Z,10.03
2018-08-11T07:35:22.673Z,3.80
2018-08-11T07:37:50.716Z,4.47
2018-08-11T07:40:18.713Z,4.30
2018-08-11T07:42:46.682Z,8.13
2018-08-11T07:45:14.608Z,5.53
2018-08-11T07:47:42.606Z,4.13
2018-08-11T07:50:10.629Z,5.37
2018-08-11T07:52:38.574Z,7.70
2018-08-11T07:55:06.624Z,3.43
2018-08-11T07:57:34.605Z,3.73
2018-08-11T08:00:02.599Z,7.67
2018-08-11T08:02:30.600Z,5.13
2018-08-11T08:04:58.631Z,4.77
2018-08-11T08:07:26.527Z,5.20
2018-08-11T08:09:54.472Z,7.10
2018-08-11T08:12:22.346Z,3.30
2018-08-11T08:14:50.313Z,5.23
2018-08-11T08:17:18.311Z,4.37
2018-08-11T08:19:46.283Z,3.83
2018-08-11T08:22:14.217Z,3.30
2018-08-11T08:24:42.185Z,3.13
2018-08-11T08:27:10.127Z,4.00
2018-08-11T08:29:38.124Z,3.77
2018-08-11T08:32:06.209Z,3.53
2018-08-11T08:34:34.242Z,4.10
2018-08-11T08:37:02.193Z,3.10
2018-08-11T08:39:30.126Z,4.50
2018-08-11T08:41:58.184Z,3.43
2018-08-11T08:44:25.951Z,2.97
2018-08-11T08:46:53.902Z,3.50
2018-08-11T08:49:21.817Z,2.40
2018-08-11T08:51:49.619Z,6.03
2018-08-11T08:54:17.470Z,3.50
2018-08-11T08:56:45.409Z,4.17
2018-08-11T08:59:13.287Z,5.13
2018-08-11T09:01:41.215Z,3.80
2018-08-11T09:04:09.091Z,2.20
2018-08-11T09:06:37.061Z,4.57
2018-08-11T09:09:06.701Z,2.63
2018-08-11T09:11:34.642Z,2.27
2018-08-11T09:14:02.520Z,3.30
2018-08-11T09:16:30.403Z,3.57
2018-08-11T09:18:58.256Z,6.00
2018-08-11T09:21:26.156Z,4.23
2018-08-11T09:23:54.011Z,7.30
2018-08-11T09:26:21.902Z,4.17
2018-08-11T09:28:49.855Z,4.70
2018-08-11T09:31:17.658Z,3.73
2018-08-11T09:33:45.501Z,3.10
2018-08-11T09:36:13.401Z,3.57
2018-08-11T09:38:41.257Z,9.10
2018-08-11T09:41:09.188Z,7.10
2018-08-11T09:43:37.231Z,6.33
2018-08-11T09:46:05.264Z,2.60
2018-08-11T09:48:33.168Z,4.13
2018-08-11T09:53:57.629Z,2.90
2018-08-11T09:56:25.509Z,6.00
2018-08-11T09:58:53.411Z,6.00
2018-08-11T10:01:26.725Z,2.60
2018-08-11T10:03:54.621Z,3.23
2018-08-11T10:06:22.521Z,4.47
2018-08-11T10:08:50.363Z,5.03
2018-08-11T10:11:18.285Z,3.17
2018-08-11T10:13:46.201Z,3.90
2018-08-11T10:16:14.104Z,3.10
2018-08-11T10:18:41.960Z,3.40
2018-08-11T10:21:09.824Z,5.60
2018-08-11T10:23:37.669Z,2.67
2018-08-11T10:26:05.612Z,3.20
2018-08-11T10:28:33.556Z,4.90
2018-08-11T10:31:01.373Z,4.73
2018-08-11T10:33:29.292Z,7.00
2018-08-11T10:35:57.174Z,4.33
2018-08-11T10:45:28.063Z,3.90
2018-08-11T10:47:56.010Z,3.83
2018-08-11T10:50:23.823Z,4.50
2018-08-11T10:52:51.737Z,5.40
2018-08-11T10:55:19.648Z,3.40
2018-08-11T10:57:47.578Z,3.90
2018-08-11T11:00:15.404Z,6.00
2018-08-11T11:02:43.331Z,4.73
2018-08-11T11:05:11.416Z,3.17
2018-08-11T11:07:39.398Z,5.63
2018-08-11T11:10:07.869Z,4.47
2018-08-11T11:12:35.858Z,5.37
2018-08-11T11:15:04.501Z,2.80
2018-08-11T11:17:32.353Z,3.60
2018-08-11T11:20:00.228Z,3.00
2018-08-11T11:22:28.089Z,4.23
2018-08-11T11:24:55.907Z,3.10
2018-08-11T11:27:23.808Z,2.63
2018-08-11T11:29:51.712Z,2.60
2018-08-11T11:32:19.637Z,2.83
2018-08-11T11:34:47.543Z,4.53
2018-08-11T11:37:15.567Z,2.07
2018-08-11T11:39:43.348Z,2.47
2018-08-11T11:42:11.165Z,2.00
2018-08-11T11:44:39.026Z,1.70
2018-08-11T11:47:06.998Z,1.60
2018-08-11T11:49:34.934Z,2.57
2018-08-11T11:52:02.821Z,2.40
2018-08-11T11:54:30.906Z,3.10
2018-08-11T11:56:58.813Z,2.70
2018-08-11T11:59:26.754Z,3.73
2018-08-11T12:01:54.659Z,2.40
2018-08-11T12:04:22.481Z,1.80
2018-08-11T12:06:50.444Z,1.50
2018-08-11T12:09:18.348Z,1.50
2018-08-11T12:11:46.264Z,2.00
2018-08-11T12:14:14.148Z,3.73
2018-08-11T12:16:43.076Z,2.73
2018-08-11T12:19:10.946Z,1.53
2018-08-11T12:21:38.825Z,2.40
2018-08-11T12:24:06.751Z,1.93
2018-08-11T12:26:34.910Z,1.60
2018-08-11T12:29:02.853Z,1.90
2018-08-11T12:31:30.669Z,2.37
2018-08-11T12:33:58.584Z,1.57
2018-08-11T12:36:26.504Z,1.63
2018-08-11T12:38:54.352Z,3.67
2018-08-11T12:41:22.289Z,1.63
2018-08-11T12:43:50.141Z,3.10
2018-08-11T12:46:17.968Z,3.50
2018-08-11T12:48:45.852Z,1.93
2018-08-11T12:51:13.773Z,1.83
2018-08-11T12:53:41.730Z,1.53
2018-08-11T12:56:09.536Z,2.10
2018-08-11T12:58:37.462Z,1.67
2018-08-11T13:01:05.412Z,2.40
2018-08-11T13:03:33.253Z,2.00
2018-08-11T13:06:01.161Z,1.63
2018-08-11T13:08:29.017Z,4.57
2018-08-11T13:10:56.940Z,1.67
2018-08-11T13:13:24.825Z,1.80
2018-08-11T13:15:52.738Z,2.00
2018-08-11T13:18:20.626Z,2.30
2018-08-11T13:20:48.647Z,1.70
2018-08-11T13:23:16.520Z,4.33
2018-08-11T13:25:44.397Z,1.80
2018-08-11T13:28:12.617Z,2.30
2018-08-11T13:30:40.493Z,1.80
2018-08-11T13:33:08.421Z,3.23
2018-08-11T13:35:36.371Z,2.27
2018-08-11T13:38:04.188Z,3.00
2018-08-11T13:40:32.077Z,3.00
2018-08-11T13:42:59.948Z,2.70
2018-08-11T13:45:27.827Z,1.93
2018-08-11T13:47:55.693Z,2.70
2018-08-11T13:50:23.627Z,2.60
2018-08-11T13:52:51.554Z,2.70
2018-08-11T13:55:19.446Z,1.70
2018-08-11T13:57:47.411Z,1.60
2018-08-11T14:00:15.358Z,1.80
2018-08-11T14:02:43.184Z,2.03
2018-08-11T14:05:11.096Z,4.93
2018-08-11T14:07:39.008Z,2.13
2018-08-11T14:10:07.465Z,1.77
2018-08-11T14:12:36.342Z,3.03
2018-08-11T14:15:04.624Z,2.10
2018-08-11T14:17:34.022Z,3.97
2018-08-11T14:20:02.014Z,2.13
2018-08-11T14:22:29.910Z,2.10
2018-08-11T14:24:57.817Z,2.80
2018-08-11T14:27:25.632Z,2.30
2018-08-11T14:29:53.485Z,2.33
2018-08-11T14:32:21.446Z,2.17
2018-08-11T14:34:49.369Z,2.30
2018-08-11T14:37:17.216Z,3.90
2018-08-11T14:39:45.082Z,3.03
2018-08-11T14:42:12.952Z,2.10
2018-08-11T14:44:40.800Z,3.37
2018-08-11T14:47:08.771Z,2.60
2018-08-11T14:49:36.671Z,4.40
2018-08-11T14:52:04.549Z,2.43
2018-08-11T14:54:32.447Z,2.90
2018-08-11T14:57:00.426Z,4.33
2018-08-11T14:59:28.386Z,2.40
2018-08-11T15:01:56.252Z,4.00
2018-08-11T15:04:24.136Z,3.50
2018-08-11T15:06:52.032Z,2.30
2018-08-11T15:09:19.909Z,4.20
2018-08-11T15:11:47.794Z,2.37
2018-08-11T15:14:15.621Z,2.30
2018-08-11T15:16:43.477Z,2.67
2018-08-11T15:19:11.419Z,2.87
2018-08-11T15:21:39.340Z,2.77
2018-08-11T15:24:07.244Z,2.80
2018-08-11T15:26:35.190Z,4.60
2018-08-11T15:29:03.086Z,2.53
2018-08-11T15:31:30.968Z,6.10
2018-08-11T15:33:58.958Z,2.60
2018-08-11T15:36:26.847Z,3.90
2018-08-11T15:38:54.729Z,3.40
2018-08-11T15:41:22.611Z,2.30
2018-08-11T15:43:51.489Z,3.00
2018-08-11T15:46:19.338Z,2.80
2018-08-11T15:48:47.210Z,3.10
2018-08-11T15:51:15.081Z,2.33
2018-08-11T15:53:42.969Z,2.40
2018-08-11T15:56:10.919Z,2.40
2018-08-11T15:58:38.772Z,3.00
2018-08-11T16:01:06.649Z,2.33
2018-08-11T16:03:35.277Z,2.10
2018-08-11T16:06:03.226Z,2.40
2018-08-11T16:08:31.120Z,2.30
2018-08-11T16:10:59.046Z,2.47
2018-08-11T16:13:26.960Z,2.53
2018-08-11T16:15:54.943Z,2.40
2018-08-11T16:18:22.835Z,3.77
2018-08-11T16:20:50.862Z,2.47
2018-08-11T16:23:18.886Z,3.27
2018-08-11T16:25:46.732Z,2.60
2018-08-11T16:28:14.627Z,6.87
2018-08-11T16:30:42.511Z,3.17
2018-08-11T16:33:10.436Z,2.33
2018-08-11T16:35:38.327Z,3.17
2018-08-11T16:38:06.338Z,5.00
2018-08-11T16:40:34.223Z,3.10
2018-08-11T16:43:02.131Z,2.30
2018-08-11T16:45:29.967Z,4.50
2018-08-11T16:47:57.894Z,4.17
2018-08-11T16:50:25.716Z,4.13
2018-08-11T16:52:54.582Z,2.40
2018-08-11T16:55:22.469Z,2.17
2018-08-11T16:57:50.358Z,2.97
2018-08-11T17:00:18.259Z,3.10
2018-08-11T17:02:46.128Z,2.57
2018-08-11T17:05:14.124Z,3.10
2018-08-11T17:07:42.342Z,2.87
2018-08-11T17:10:10.649Z,3.03
2018-08-11T17:12:39.329Z,2.53
2018-08-11T17:15:07.822Z,5.07
2018-08-11T17:17:35.791Z,3.10
2018-08-11T17:20:03.942Z,2.70
2018-08-11T17:22:31.877Z,2.60
2018-08-11T17:24:59.782Z,2.63
2018-08-11T17:27:27.739Z,2.57
2018-08-11T17:29:55.601Z,4.77
2018-08-11T17:32:23.536Z,2.83
2018-08-11T17:34:51.470Z,2.80
2018-08-11T17:37:19.662Z,3.57
2018-08-11T17:39:47.553Z,2.80
2018-08-11T17:42:15.429Z,3.50
2018-08-11T17:44:43.282Z,5.67
2018-08-11T17:47:11.137Z,3.53
2018-08-11T17:49:39.056Z,3.20
2018-08-11T17:52:07.170Z,3.53
2018-08-11T17:54:35.313Z,4.10
2018-08-11T17:57:03.204Z,5.20
2018-08-11T17:59:31.122Z,3.00
2018-08-11T18:01:59.082Z,4.90
2018-08-11T18:04:26.978Z,2.70
2018-08-11T18:06:54.933Z,3.50
2018-08-11T18:09:22.745Z,4.17
2018-08-11T18:11:50.751Z,4.50
2018-08-11T18:14:18.691Z,3.53
2018-08-11T18:16:46.572Z,5.10
2018-08-11T18:19:14.488Z,2.43
2018-08-11T18:21:42.462Z,3.33
2018-08-11T18:24:10.381Z,5.00
2018-08-11T18:26:39.289Z,2.87
2018-08-11T18:29:07.136Z,3.60
2018-08-11T18:31:35.042Z,4.10
2018-08-11T18:34:03.045Z,6.83
2018-08-11T18:36:30.952Z,4.47
2018-08-11T18:38:58.797Z,4.33
2018-08-11T18:41:26.742Z,4.10
2018-08-11T18:43:54.603Z,3.60
2018-08-11T18:46:22.561Z,4.07
2018-08-11T18:48:50.519Z,4.10
2018-08-11T18:51:18.475Z,3.40
2018-08-11T18:53:46.377Z,3.30
2018-08-11T18:56:14.236Z,3.27
2018-08-11T18:58:42.135Z,2.50
2018-08-11T19:01:10.095Z,2.60
2018-08-11T19:03:38.408Z,6.80
2018-08-11T19:06:06.265Z,3.50
2018-08-11T19:08:34.318Z,3.00
2018-08-11T19:11:02.204Z,3.30
2018-08-11T19:13:30.239Z,3.77
2018-08-11T19:15:58.202Z,2.33
2018-08-11T19:18:26.185Z,2.83
2018-08-11T19:20:54.216Z,2.40
2018-08-11T19:23:22.526Z,1.97
2018-08-11T19:25:50.563Z,3.13
2018-08-11T19:28:18.620Z,3.10
2018-08-11T19:30:46.552Z,2.30
2018-08-11T19:33:14.610Z,2.03
2018-08-11T19:35:42.589Z,2.87
2018-08-11T19:38:10.448Z,4.37
2018-08-11T19:40:38.328Z,1.63
2018-08-11T19:43:06.346Z,2.27
2018-08-11T19:45:34.280Z,1.80
2018-08-11T19:48:02.160Z,3.23
2018-08-11T19:50:30.020Z,1.53
2018-08-11T19:52:57.913Z,3.90
2018-08-11T19:55:26.186Z,4.50
2018-08-11T19:57:56.377Z,1.87
2018-08-11T20:00:24.411Z,2.27
2018-08-11T20:02:52.486Z,3.07
2018-08-11T20:05:20.706Z,2.20
2018-08-11T20:07:48.587Z,1.60
2018-08-11T20:10:16.487Z,2.17
2018-08-11T20:12:44.418Z,2.80
2018-08-11T20:15:12.294Z,3.80
2018-08-11T20:17:40.285Z,2.63
2018-08-11T20:20:10.517Z,2.00
2018-08-11T20:22:38.403Z,4.57
2018-08-11T20:25:06.630Z,3.17
2018-08-11T20:27:35.474Z,6.13
2018-08-11T20:30:03.726Z,1.80
2018-08-11T20:32:31.687Z,3.33
2018-08-11T20:34:59.976Z,3.00
2018-08-11T20:37:27.928Z,3.53
2018-08-11T20:39:55.807Z,2.87
2018-08-11T20:42:23.875Z,2.23
2018-08-11T20:44:51.867Z,2.67
2018-08-11T20:47:19.924Z,2.00
2018-08-11T20:49:47.836Z,2.47
2018-08-11T20:52:15.815Z,2.40
2018-08-11T20:54:43.708Z,3.87
2018-08-11T20:57:11.596Z,2.17
2018-08-11T20:59:39.482Z,2.83
2018-08-11T21:02:07.348Z,2.37
2018-08-11T21:04:35.228Z,8.83
2018-08-11T21:07:03.121Z,3.63
2018-08-11T21:09:31.061Z,2.80
2018-08-11T21:11:58.969Z,6.50
2018-08-11T21:14:26.922Z,2.43
2018-08-11T21:16:54.838Z,2.03
2018-08-11T21:19:22.744Z,2.50
2018-08-11T21:21:50.602Z,3.30
2018-08-11T21:24:18.477Z,2.67
2018-08-11T21:26:46.373Z,3.73
2018-08-11T21:29:14.358Z,1.83
2018-08-11T21:31:42.269Z,5.10
2018-08-11T21:34:10.167Z,3.00
2018-08-11T21:36:38.116Z,1.90
2018-08-11T21:39:08.077Z,2.70
2018-08-11T21:41:35.986Z,2.03
2018-08-11T21:44:03.824Z,2.27
2018-08-11T21:46:31.816Z,2.27
2018-08-11T21:48:59.665Z,1.63
2018-08-11T21:51:27.751Z,3.10
2018-08-11T21:53:55.644Z,3.73
2018-08-11T21:56:23.501Z,3.70
2018-08-11T21:58:51.460Z,1.70
2018-08-11T22:01:19.420Z,1.70
2018-08-11T22:03:47.307Z,1.70
2018-08-11T22:06:15.127Z,1.70
2018-08-11T22:08:43.070Z,1.90
2018-08-11T22:11:11.002Z,2.90
2018-08-11T22:13:38.880Z,2.33
2018-08-11T22:16:07.538Z,1.80
2018-08-11T22:18:36.075Z,2.23
2018-08-11T22:21:04.016Z,3.30
2018-08-11T22:23:31.906Z,2.77
2018-08-11T22:25:59.773Z,2.07
2018-08-11T22:28:27.641Z,3.20
2018-08-11T22:30:56.650Z,3.43
2018-08-11T22:33:24.689Z,3.60
2018-08-11T22:35:52.712Z,1.77
2018-08-11T22:38:20.567Z,2.67
2018-08-11T22:40:48.481Z,3.30
2018-08-11T22:43:16.375Z,8.10
2018-08-11T22:45:44.183Z,3.10
2018-08-11T22:48:12.075Z,3.60
2018-08-11T22:50:39.979Z,3.00
2018-08-11T22:53:07.984Z,2.40
2018-08-11T22:55:35.934Z,2.60
2018-08-11T22:58:03.968Z,3.93
2018-08-11T23:00:31.822Z,2.83
2018-08-11T23:02:59.762Z,1.90
2018-08-11T23:05:27.710Z,2.10
2018-08-11T23:07:55.678Z,4.73
2018-08-11T23:10:23.624Z,4.33
2018-08-11T23:12:51.495Z,2.00
2018-08-11T23:15:19.470Z,2.27
2018-08-11T23:17:48.722Z,2.30
2018-08-11T23:20:16.862Z,4.33
2018-08-11T23:22:44.965Z,2.10
2018-08-11T23:25:13.239Z,3.50
2018-08-11T23:27:41.202Z,2.50
2018-08-11T23:30:11.061Z,3.47
2018-08-11T23:32:39.821Z,4.40
2018-08-11T23:35:07.855Z,3.97
2018-08-11T23:37:35.746Z,1.80
2018-08-11T23:40:04.428Z,4.60
2018-08-11T23:42:32.373Z,8.93
2018-08-11T23:45:00.315Z,12.87
2018-08-11T23:47:28.157Z,3.00
2018-08-11T23:49:56.052Z,4.27
2018-08-11T23:52:23.961Z,2.67
2018-08-11T23:54:51.812Z,2.20
2018-08-11T23:57:19.787Z,2.50
2018-08-11T23:59:47.680Z,2.90
